createdAt,value
2019-02-02T00:02:20.083Z,99599.31
2019-02-02T00:04:49.555Z,99608.69
2019-02-02T00:07:19.047Z,99606.40
2019-02-02T00:09:49.957Z,99603.05
2019-02-02T00:12:20.922Z,99603.18
2019-02-02T00:14:50.388Z,99611.98
2019-02-02T00:17:20.040Z,99603.72
2019-02-02T00:19:51.253Z,99609.62
2019-02-02T00:22:20.691Z,99614.81
2019-02-02T00:24:50.164Z,99616.06
2019-02-02T00:27:19.566Z,99620.27
2019-02-02T00:29:48.996Z,99618.34
2019-02-02T00:32:18.752Z,99615.45
2019-02-02T00:34:48.336Z,99618.61
2019-02-02T00:37:20.833Z,99610.00
2019-02-02T00:39:50.542Z,99615.21
2019-02-02T00:42:20.148Z,99611.38
2019-02-02T00:44:50.779Z,99619.38
2019-02-02T00:47:21.498Z,99622.42
2019-02-02T00:49:50.941Z,99626.31
2019-02-02T00:52:21.375Z,99631.48
2019-02-02T00:54:51.062Z,99633.25
2019-02-02T00:57:20.851Z,99627.03
2019-02-02T00:59:50.241Z,99626.95
2019-02-02T01:02:21.248Z,99630.42
2019-02-02T01:04:52.491Z,99629.91
2019-02-02T01:07:23.631Z,99623.27
2019-02-02T01:09:53.534Z,99621.84
2019-02-02T01:12:23.070Z,99629.85
2019-02-02T01:14:53.748Z,99630.28
2019-02-02T01:17:23.367Z,99629.11
2019-02-02T01:19:54.584Z,99628.66
2019-02-02T01:22:25.228Z,99623.99
2019-02-02T01:24:54.896Z,99615.52
2019-02-02T01:27:24.476Z,99614.49
2019-02-02T01:29:54.001Z,99609.28
2019-02-02T01:32:23.519Z,99611.83
2019-02-02T01:34:52.948Z,99619.98
2019-02-02T01:37:23.372Z,99620.44
2019-02-02T01:39:52.997Z,99617.15
2019-02-02T01:42:22.510Z,99616.50
2019-02-02T01:44:52.049Z,99609.55
2019-02-02T01:47:21.692Z,99611.98
2019-02-02T01:49:51.143Z,99618.56
2019-02-02T01:52:20.557Z,99626.87
2019-02-02T01:54:50.025Z,99637.36
2019-02-02T01:57:20.899Z,99637.77
2019-02-02T01:59:50.425Z,99626.74
2019-02-02T02:02:20.114Z,99628.84
2019-02-02T02:04:49.522Z,99626.87
2019-02-02T02:07:19.947Z,99626.36
2019-02-02T02:09:50.654Z,99628.91
2019-02-02T02:12:21.197Z,99630.17
2019-02-02T02:14:50.598Z,99631.48
2019-02-02T02:17:21.177Z,99634.76
2019-02-02T02:19:52.500Z,99626.54
2019-02-02T02:22:21.979Z,99639.59
2019-02-02T02:24:51.694Z,99636.00
2019-02-02T02:27:21.126Z,99622.16
2019-02-02T02:29:50.976Z,99619.00
2019-02-02T02:32:21.455Z,99610.93
2019-02-02T02:34:52.221Z,99607.09
2019-02-02T02:37:21.727Z,99609.09
2019-02-02T02:39:53.252Z,99602.66
2019-02-02T02:42:23.907Z,99601.33
2019-02-02T02:44:54.392Z,99609.41
2019-02-02T02:47:25.768Z,99606.00
2019-02-02T02:49:55.354Z,99606.17
2019-02-02T02:52:24.876Z,99605.58
2019-02-02T02:54:55.890Z,99606.99
2019-02-02T02:57:26.268Z,99608.05
2019-02-02T02:59:56.836Z,99607.09
2019-02-02T03:02:28.084Z,99608.91
2019-02-02T03:04:57.600Z,99606.05
2019-02-02T03:07:29.293Z,99600.93
2019-02-02T03:10:00.217Z,99596.58
2019-02-02T03:12:31.672Z,99599.17
2019-02-02T03:15:01.269Z,99607.59
2019-02-02T03:17:32.329Z,99606.84
2019-02-02T03:20:03.857Z,99604.73
2019-02-02T03:22:34.478Z,99611.87
2019-02-02T03:25:05.374Z,99613.40
2019-02-02T03:27:34.937Z,99610.12
2019-02-02T03:30:05.307Z,99614.50
2019-02-02T03:32:34.947Z,99619.75
2019-02-02T03:35:05.073Z,99615.02
2019-02-02T03:37:34.595Z,99615.09
2019-02-02T03:40:05.886Z,99616.41
2019-02-02T03:42:36.454Z,99614.23
2019-02-02T03:45:06.308Z,99612.70
2019-02-02T03:47:36.016Z,99605.77
2019-02-02T03:50:06.443Z,99607.73
2019-02-02T03:52:36.279Z,99614.88
2019-02-02T03:55:06.630Z,99615.75
2019-02-02T03:57:36.043Z,99624.93
2019-02-02T04:00:07.122Z,99613.33
2019-02-02T04:02:36.937Z,99611.42
2019-02-02T04:05:08.572Z,99612.94
2019-02-02T04:07:39.193Z,99617.39
2019-02-02T04:10:09.835Z,99622.06
2019-02-02T04:12:39.612Z,99615.16
2019-02-02T04:15:11.346Z,99612.36
2019-02-02T04:17:41.710Z,99614.77
2019-02-02T04:20:21.553Z,99617.16
2019-02-02T04:22:51.599Z,99628.77
2019-02-02T04:25:22.314Z,99626.59
2019-02-02T04:27:54.899Z,99631.70
2019-02-02T04:30:26.124Z,99628.59
2019-02-02T04:32:57.061Z,99623.89
2019-02-02T04:35:26.598Z,99627.48
2019-02-02T04:37:57.120Z,99632.08
2019-02-02T04:40:29.545Z,99633.77
2019-02-02T04:43:01.759Z,99631.70
2019-02-02T04:45:30.090Z,99630.31
2019-02-02T04:47:59.638Z,99626.80
2019-02-02T04:50:29.058Z,99625.48
2019-02-02T04:53:02.081Z,99623.58
2019-02-02T04:55:31.527Z,99613.98
2019-02-02T04:58:00.952Z,99601.80
2019-02-02T05:00:30.459Z,99603.17
2019-02-02T05:03:00.131Z,99599.83
2019-02-02T05:05:32.004Z,99602.06
2019-02-02T05:08:01.510Z,99604.69
2019-02-02T05:10:32.225Z,99603.42
2019-02-02T05:13:01.777Z,99613.39
2019-02-02T05:15:32.572Z,99614.53
2019-02-02T05:18:02.321Z,99618.95
2019-02-02T05:20:32.750Z,99620.44
2019-02-02T05:23:03.967Z,99622.27
2019-02-02T05:25:33.604Z,99628.24
2019-02-02T05:28:03.052Z,99632.45
2019-02-02T05:30:32.590Z,99635.05
2019-02-02T05:33:02.091Z,99640.33
2019-02-02T05:35:31.576Z,99650.37
2019-02-02T05:38:02.956Z,99649.20
2019-02-02T05:40:34.441Z,99645.64
2019-02-02T05:43:03.946Z,99645.25
2019-02-02T05:45:33.493Z,99642.98
2019-02-02T05:48:03.085Z,99648.56
2019-02-02T05:50:32.513Z,99650.84
2019-02-02T05:53:01.971Z,99656.63
2019-02-02T05:55:31.469Z,99652.34
2019-02-02T05:58:00.863Z,99655.38
2019-02-02T06:00:47.611Z,99651.26
2019-02-02T06:03:20.566Z,99658.13
2019-02-02T06:05:50.060Z,99660.89
2019-02-02T06:08:19.513Z,99657.48
2019-02-02T06:10:50.721Z,99657.23
2019-02-02T06:13:20.274Z,99661.76
2019-02-02T06:15:50.070Z,99669.55
2019-02-02T06:18:21.741Z,99674.82
2019-02-02T06:20:51.257Z,99670.75
2019-02-02T06:23:21.938Z,99677.58
2019-02-02T06:25:51.373Z,99680.92
2019-02-02T06:28:21.932Z,99679.07
2019-02-02T06:30:51.627Z,99681.89
2019-02-02T06:33:21.278Z,99687.04
2019-02-02T06:35:51.796Z,99690.19
2019-02-02T06:38:23.072Z,99688.48
2019-02-02T06:40:52.479Z,99694.06
2019-02-02T06:43:24.775Z,99688.87
2019-02-02T06:45:54.394Z,99690.84
2019-02-02T06:48:25.269Z,99699.97
2019-02-02T06:50:54.744Z,99701.76
2019-02-02T06:53:24.353Z,99701.76
2019-02-02T06:55:53.814Z,99701.89
2019-02-02T06:58:23.251Z,99700.36
2019-02-02T07:00:52.891Z,99696.22
2019-02-02T07:03:24.062Z,99694.39
2019-02-02T07:05:54.667Z,99697.28
2019-02-02T07:08:24.258Z,99697.20
2019-02-02T07:10:54.782Z,99705.09
2019-02-02T07:13:24.226Z,99704.17
2019-02-02T07:15:56.887Z,99703.27
2019-02-02T07:18:26.293Z,99704.70
2019-02-02T07:20:55.726Z,99715.30
2019-02-02T07:23:26.585Z,99719.09
2019-02-02T07:25:56.039Z,99725.02
2019-02-02T07:28:25.536Z,99728.36
2019-02-02T07:30:55.081Z,99734.13
2019-02-02T07:33:24.569Z,99721.98
2019-02-02T07:35:54.337Z,99718.35
2019-02-02T07:38:24.121Z,99722.63
2019-02-02T07:40:54.618Z,99738.22
2019-02-02T07:43:24.065Z,99743.78
2019-02-02T07:45:53.872Z,99739.66
2019-02-02T07:48:23.266Z,99744.27
2019-02-02T07:50:52.733Z,99751.56
2019-02-02T07:53:22.307Z,99756.41
2019-02-02T07:55:51.782Z,99767.45
2019-02-02T07:58:21.214Z,99764.83
2019-02-02T08:00:50.875Z,99781.18
2019-02-02T08:03:20.322Z,99792.56
2019-02-02T08:05:49.737Z,99796.03
2019-02-02T08:08:19.210Z,99803.11
2019-02-02T08:10:50.534Z,99799.61
2019-02-02T08:13:19.968Z,99804.30
2019-02-02T08:15:51.240Z,99795.06
2019-02-02T08:18:21.743Z,99795.06
2019-02-02T08:20:51.168Z,99802.77
2019-02-02T08:23:22.760Z,99807.61
2019-02-02T08:25:53.265Z,99796.73
2019-02-02T08:28:22.920Z,99804.48
2019-02-02T08:30:52.917Z,99803.59
2019-02-02T08:33:22.335Z,99794.81
2019-02-02T08:35:51.735Z,99788.16
2019-02-02T08:38:21.390Z,99803.09
2019-02-02T08:40:50.796Z,99799.44
2019-02-02T08:43:20.282Z,99801.84
2019-02-02T08:45:49.969Z,99801.12
2019-02-02T08:48:19.383Z,99793.48
2019-02-02T08:50:48.768Z,99792.64
2019-02-02T08:53:20.922Z,99792.64
2019-02-02T08:55:51.949Z,99800.63
2019-02-02T08:58:21.571Z,99807.98
2019-02-02T09:01:03.389Z,99806.12
2019-02-02T09:03:22.552Z,99808.77
2019-02-02T09:05:51.954Z,99801.67
2019-02-02T09:08:21.419Z,99802.18
2019-02-02T09:10:52.359Z,99802.96
2019-02-02T09:13:21.807Z,99811.77
2019-02-02T09:15:51.442Z,99818.45
2019-02-02T09:18:22.072Z,99827.11
2019-02-02T09:20:51.625Z,99823.86
2019-02-02T09:23:22.750Z,99841.53
2019-02-02T09:25:53.466Z,99842.91
2019-02-02T09:28:22.936Z,99846.55
2019-02-02T09:30:53.757Z,99846.61
2019-02-02T09:33:24.353Z,99849.70
2019-02-02T09:35:53.877Z,99846.09
2019-02-02T09:38:24.323Z,99851.36
2019-02-02T09:40:53.751Z,99854.94
2019-02-02T09:43:26.423Z,99850.75
2019-02-02T09:45:57.760Z,99850.23
2019-02-02T09:48:27.260Z,99848.00
2019-02-02T09:50:57.763Z,99846.01
2019-02-02T09:53:28.284Z,99853.09
2019-02-02T09:55:59.558Z,99855.56
2019-02-02T09:58:29.694Z,99850.92
2019-02-02T10:00:59.380Z,99861.55
2019-02-02T10:03:28.890Z,99872.92
2019-02-02T10:06:00.115Z,99878.20
2019-02-02T10:08:29.952Z,99877.05
2019-02-02T10:10:59.398Z,99890.25
2019-02-02T10:13:28.867Z,99888.31
2019-02-02T10:15:58.892Z,99890.03
2019-02-02T10:18:28.318Z,99912.83
2019-02-02T10:21:04.123Z,99906.16
2019-02-02T10:23:31.120Z,99903.42
2019-02-02T10:26:00.698Z,99896.58
2019-02-02T10:28:31.339Z,99900.83
2019-02-02T10:31:01.117Z,99899.63
2019-02-02T10:33:31.665Z,99893.93
2019-02-02T10:36:01.172Z,99887.81
2019-02-02T10:38:31.256Z,99887.49
2019-02-02T10:41:00.677Z,99883.94
2019-02-02T10:43:30.217Z,99889.44
2019-02-02T10:45:59.692Z,99889.20
2019-02-02T10:48:31.853Z,99889.50
2019-02-02T10:51:01.321Z,99889.50
2019-02-02T10:53:31.051Z,99888.50
2019-02-02T10:56:00.595Z,99893.19
2019-02-02T10:58:29.995Z,99889.30
2019-02-02T11:01:00.800Z,99882.62
2019-02-02T11:03:30.562Z,99879.59
2019-02-02T11:06:01.483Z,99883.77
2019-02-02T11:08:31.122Z,99883.38
2019-02-02T11:11:00.843Z,99885.33
2019-02-02T11:13:30.504Z,99892.64
2019-02-02T11:16:00.263Z,99888.51
2019-02-02T11:18:29.751Z,99890.61
2019-02-02T11:21:00.383Z,99892.54
2019-02-02T11:23:30.194Z,99887.03
2019-02-02T11:25:59.801Z,99894.09
2019-02-02T11:28:30.875Z,99891.45
2019-02-02T11:31:00.803Z,99888.13
2019-02-02T11:33:33.528Z,99884.78
2019-02-02T11:36:04.066Z,99875.70
2019-02-02T11:38:33.770Z,99881.45
2019-02-02T11:41:03.278Z,99878.19
2019-02-02T11:43:34.109Z,99871.67
2019-02-02T11:46:04.852Z,99872.98
2019-02-02T11:48:34.287Z,99876.95
2019-02-02T11:51:04.988Z,99875.31
2019-02-02T11:53:37.346Z,99868.86
2019-02-02T11:56:06.158Z,99875.16
2019-02-02T11:58:35.561Z,99878.27
2019-02-02T12:01:05.762Z,99888.50
2019-02-02T12:03:35.205Z,99893.84
2019-02-02T12:06:05.921Z,99893.84
2019-02-02T12:08:36.633Z,99900.04
2019-02-02T12:11:07.865Z,99900.30
2019-02-02T12:13:38.347Z,99903.77
2019-02-02T12:16:08.818Z,99905.32
2019-02-02T12:18:39.988Z,99903.85
2019-02-02T12:21:09.537Z,99904.70
2019-02-02T12:23:41.069Z,99905.98
2019-02-02T12:26:10.492Z,99901.39
2019-02-02T12:28:40.920Z,99900.44
2019-02-02T12:31:10.548Z,99912.78
2019-02-02T12:33:40.148Z,99904.13
2019-02-02T12:36:11.214Z,99909.50
2019-02-02T12:38:40.705Z,99911.77
2019-02-02T12:41:10.194Z,99914.09
2019-02-02T12:43:39.597Z,99909.72
2019-02-02T12:46:09.600Z,99913.19
2019-02-02T12:48:40.086Z,99908.63
2019-02-02T12:51:10.531Z,99909.98
2019-02-02T12:53:40.026Z,99912.13
2019-02-02T12:56:09.398Z,99913.27
2019-02-02T12:58:39.946Z,99911.41
2019-02-02T13:01:09.554Z,99912.13
2019-02-02T13:03:40.093Z,99917.87
2019-02-02T13:06:11.331Z,99917.87
2019-02-02T13:08:42.165Z,99913.95
2019-02-02T13:11:12.111Z,99917.87
2019-02-02T13:13:42.769Z,99908.73
2019-02-02T13:16:12.588Z,99909.19
2019-02-02T13:18:42.218Z,99923.18
2019-02-02T13:21:13.273Z,99920.72
2019-02-02T13:23:44.403Z,99920.94
2019-02-02T13:26:13.800Z,99923.25
2019-02-02T13:28:43.223Z,99923.12
2019-02-02T13:31:13.945Z,99926.68
2019-02-02T13:33:44.389Z,99926.77
2019-02-02T13:36:15.346Z,99932.98
2019-02-02T13:38:46.549Z,99938.53
2019-02-02T13:41:15.986Z,99935.70
2019-02-02T13:43:46.539Z,99940.22
2019-02-02T13:46:15.993Z,99944.49
2019-02-02T13:48:45.412Z,99949.06
2019-02-02T13:51:15.335Z,99952.42
2019-02-02T13:53:44.805Z,99947.05
2019-02-02T13:56:16.058Z,99947.72
2019-02-02T13:58:45.494Z,99950.36
2019-02-02T14:01:16.306Z,99948.61
2019-02-02T14:03:45.797Z,99949.41
2019-02-02T14:06:15.284Z,99952.83
2019-02-02T14:08:46.430Z,99961.54
2019-02-02T14:11:15.864Z,99968.28
2019-02-02T14:13:45.387Z,99975.18
2019-02-02T14:16:14.833Z,99978.41
2019-02-02T14:18:44.388Z,99981.05
2019-02-02T14:21:14.884Z,99992.36
2019-02-02T14:23:48.112Z,99993.91
2019-02-02T14:26:19.364Z,99998.59
2019-02-02T14:28:49.927Z,100005.61
2019-02-02T14:31:19.414Z,99995.50
2019-02-02T14:33:48.935Z,100000.01
2019-02-02T14:36:19.381Z,100009.48
2019-02-02T14:38:50.618Z,100015.08
2019-02-02T14:41:20.098Z,100017.88
2019-02-02T14:43:49.567Z,100020.93
2019-02-02T14:46:19.167Z,100024.55
2019-02-02T14:48:48.576Z,100032.19
2019-02-02T14:51:18.000Z,100029.49
2019-02-02T14:53:49.086Z,100028.22
2019-02-02T14:56:18.626Z,100034.66
2019-02-02T14:58:48.572Z,100038.16
2019-02-02T15:01:18.237Z,100033.89
2019-02-02T15:03:47.785Z,100043.95
2019-02-02T15:06:17.411Z,100042.20
2019-02-02T15:08:46.944Z,100039.80
2019-02-02T15:11:16.654Z,100053.97
2019-02-02T15:13:47.803Z,100058.76
2019-02-02T15:16:17.712Z,100064.44
2019-02-02T15:18:47.193Z,100070.11
2019-02-02T15:21:19.205Z,100068.11
2019-02-02T15:23:50.568Z,100079.09
2019-02-02T15:26:20.043Z,100080.87
2019-02-02T15:28:49.483Z,100078.23
2019-02-02T15:31:19.060Z,100074.02
2019-02-02T15:33:48.578Z,100080.16
2019-02-02T15:36:17.968Z,100076.89
2019-02-02T15:38:47.611Z,100086.98
2019-02-02T15:41:17.062Z,100084.03
2019-02-02T15:43:46.505Z,100089.08
2019-02-02T15:46:16.024Z,100092.26
2019-02-02T15:48:45.742Z,100091.58
2019-02-02T15:51:15.185Z,100092.26
2019-02-02T15:53:44.969Z,100093.75
2019-02-02T15:56:17.006Z,100095.60
2019-02-02T15:58:46.585Z,100098.62
2019-02-02T16:01:18.157Z,100097.30
2019-02-02T16:03:49.566Z,100103.08
2019-02-02T16:06:18.865Z,100109.84
2019-02-02T16:08:48.412Z,100114.93
2019-02-02T16:11:17.885Z,100115.91
2019-02-02T16:13:47.316Z,100115.75
2019-02-02T16:16:16.770Z,100115.92
2019-02-02T16:18:47.350Z,100119.83
2019-02-02T16:21:20.321Z,100121.86
2019-02-02T16:23:49.946Z,100121.45
2019-02-02T16:26:19.382Z,100131.10
2019-02-02T16:28:49.038Z,100136.14
2019-02-02T16:31:18.694Z,100137.74
2019-02-02T16:33:48.166Z,100138.20
2019-02-02T16:36:17.650Z,100141.17
2019-02-02T16:38:47.534Z,100148.77
2019-02-02T16:41:18.774Z,100153.21
2019-02-02T16:43:49.405Z,100166.16
2019-02-02T16:46:18.865Z,100164.56
2019-02-02T16:48:48.372Z,100171.65
2019-02-02T16:51:17.818Z,100177.78
2019-02-02T16:53:48.710Z,100177.97
2019-02-02T16:56:21.140Z,100186.15
2019-02-02T16:58:50.633Z,100196.98
2019-02-02T17:01:20.302Z,100198.47
2019-02-02T17:03:49.703Z,100197.87
2019-02-02T17:06:20.883Z,100201.27
2019-02-02T17:08:50.415Z,100203.49
2019-02-02T17:11:19.872Z,100206.96
2019-02-02T17:13:52.377Z,100203.61
2019-02-02T17:16:20.783Z,100218.16
2019-02-02T17:18:50.480Z,100221.33
2019-02-02T17:21:23.013Z,100221.25
2019-02-02T17:23:53.906Z,100226.45
2019-02-02T17:26:23.320Z,100224.41
2019-02-02T17:28:54.643Z,100230.03
2019-02-02T17:31:24.090Z,100231.58
2019-02-02T17:33:53.491Z,100237.01
2019-02-02T17:36:22.969Z,100238.78
2019-02-02T17:38:53.735Z,100234.38
2019-02-02T17:41:23.173Z,100237.84
2019-02-02T17:43:52.630Z,100240.21
2019-02-02T17:46:22.265Z,100243.91
2019-02-02T17:48:51.981Z,100253.06
2019-02-02T17:51:23.802Z,100258.15
2019-02-02T17:53:53.543Z,100254.27
2019-02-02T17:56:29.151Z,100262.05
2019-02-02T17:58:58.612Z,100264.75
2019-02-02T18:01:28.209Z,100265.42
2019-02-02T18:03:58.127Z,100267.08
2019-02-02T18:06:27.811Z,100272.08
2019-02-02T18:08:59.364Z,100284.02
2019-02-02T18:11:28.892Z,100284.22
2019-02-02T18:13:59.503Z,100290.67
2019-02-02T18:16:30.555Z,100286.25
2019-02-02T18:19:01.812Z,100301.97
2019-02-02T18:21:33.054Z,100306.55
2019-02-02T18:24:02.778Z,100306.77
2019-02-02T18:26:33.394Z,100308.35
2019-02-02T18:29:05.031Z,100309.34
2019-02-02T18:31:35.571Z,100312.92
2019-02-02T18:34:06.311Z,100318.33
2019-02-02T18:36:35.804Z,100319.17
2019-02-02T18:39:08.232Z,100330.91
2019-02-02T18:41:37.646Z,100333.29
2019-02-02T18:44:07.213Z,100348.08
2019-02-02T18:46:37.058Z,100349.97
2019-02-02T18:49:08.000Z,100351.77
2019-02-02T18:51:37.489Z,100359.69
2019-02-02T18:54:07.168Z,100362.33
2019-02-02T18:56:36.652Z,100374.34
2019-02-02T18:59:06.532Z,100369.76
2019-02-02T19:01:37.408Z,100378.92
2019-02-02T19:04:07.871Z,100378.88
2019-02-02T19:06:37.294Z,100386.39
2019-02-02T19:09:08.830Z,100390.55
2019-02-02T19:11:40.086Z,100393.39
2019-02-02T19:14:11.260Z,100397.98
2019-02-02T19:16:41.009Z,100400.03
2019-02-02T19:19:11.867Z,100395.83
2019-02-02T19:21:41.302Z,100394.23
2019-02-02T19:24:11.041Z,100392.39
2019-02-02T19:26:40.526Z,100387.66
2019-02-02T19:29:09.966Z,100390.89
2019-02-02T19:31:39.675Z,100399.22
2019-02-02T19:34:09.104Z,100408.91
2019-02-02T19:36:39.508Z,100413.02
2019-02-02T19:39:10.158Z,100417.42
2019-02-02T19:41:39.741Z,100419.92
2019-02-02T19:44:09.186Z,100425.52
2019-02-02T19:46:39.740Z,100416.97
2019-02-02T19:49:12.685Z,100419.85
2019-02-02T19:51:42.980Z,100408.98
2019-02-02T19:54:14.724Z,100404.77
2019-02-02T19:56:44.706Z,100404.11
2019-02-02T19:59:14.186Z,100408.91
2019-02-02T20:01:43.748Z,100418.67
2019-02-02T20:04:13.149Z,100414.92
2019-02-02T20:06:43.148Z,100425.86
2019-02-02T20:09:16.946Z,100427.14
2019-02-02T20:11:48.080Z,100428.39
2019-02-02T20:14:17.595Z,100438.78
2019-02-02T20:16:47.079Z,100440.69
2019-02-02T20:19:18.355Z,100444.95
2019-02-02T20:21:48.084Z,100451.03
2019-02-02T20:24:17.972Z,100455.77
2019-02-02T20:26:47.397Z,100456.48
2019-02-02T20:29:17.960Z,100464.37
2019-02-02T20:31:48.573Z,100468.04
2019-02-02T20:34:18.066Z,100473.25
2019-02-02T20:36:47.603Z,100476.48
2019-02-02T20:39:18.962Z,100479.83
2019-02-02T20:41:48.601Z,100483.30
2019-02-02T20:44:18.127Z,100485.42
2019-02-02T20:46:47.752Z,100486.96
2019-02-02T20:49:17.189Z,100491.92
2019-02-02T20:51:46.709Z,100495.08
2019-02-02T20:54:18.953Z,100497.20
2019-02-02T20:56:48.064Z,100504.70
2019-02-02T20:59:17.498Z,100507.69
2019-02-02T21:01:47.142Z,100505.58
2019-02-02T21:04:16.547Z,100511.42
2019-02-02T21:06:45.971Z,100517.73
2019-02-02T21:09:15.817Z,100524.41
2019-02-02T21:11:57.132Z,100529.81
2019-02-02T21:14:22.486Z,100527.56
2019-02-02T21:16:52.699Z,100548.80
2019-02-02T21:19:22.156Z,100545.34
2019-02-02T21:21:56.268Z,100548.74
2019-02-02T21:24:26.087Z,100552.60
2019-02-02T21:26:59.473Z,100555.82
2019-02-02T21:29:31.257Z,100559.20
2019-02-02T21:32:01.044Z,100562.41
2019-02-02T21:34:31.453Z,100564.77
2019-02-02T21:37:03.108Z,100574.28
2019-02-02T21:39:32.678Z,100576.86
2019-02-02T21:42:04.407Z,100576.98
2019-02-02T21:44:42.888Z,100575.70
2019-02-02T21:47:08.506Z,100581.56
2019-02-02T21:49:41.667Z,100583.27
2019-02-02T21:52:11.217Z,100589.77
2019-02-02T21:54:42.760Z,100591.38
2019-02-02T21:57:13.722Z,100593.62
2019-02-02T21:59:43.278Z,100600.14
2019-02-02T22:02:13.037Z,100606.58
2019-02-02T22:04:43.989Z,100607.88
2019-02-02T22:07:16.863Z,100607.72
2019-02-02T22:09:46.696Z,100615.91
2019-02-02T22:12:18.130Z,100618.42
2019-02-02T22:14:49.413Z,100622.06
2019-02-02T22:17:20.213Z,100624.98
2019-02-02T22:19:50.956Z,100623.08
2019-02-02T22:22:21.849Z,100626.00
2019-02-02T22:24:53.143Z,100632.30
2019-02-02T22:27:24.389Z,100641.47
2019-02-02T22:29:55.116Z,100645.56
2019-02-02T22:32:26.270Z,100655.19
2019-02-02T22:35:01.250Z,100654.73
2019-02-02T22:37:30.766Z,100667.12
2019-02-02T22:40:02.851Z,100676.58
2019-02-02T22:42:32.705Z,100687.94
2019-02-02T22:45:03.608Z,100689.20
2019-02-02T22:47:35.306Z,100696.48
2019-02-02T22:50:07.242Z,100702.00
2019-02-02T22:52:37.963Z,100708.78
2019-02-02T22:55:09.770Z,100711.05
2019-02-02T22:57:39.601Z,100711.41
2019-02-02T23:01:10.489Z,100707.75
2019-02-02T23:04:33.205Z,100709.77
2019-02-02T23:07:11.427Z,100710.91
2019-02-02T23:10:21.879Z,100713.03
2019-02-02T23:13:35.380Z,100723.20
2019-02-02T23:16:23.584Z,100725.51
2019-02-02T23:18:54.915Z,100729.58
2019-02-02T23:21:29.603Z,100733.18
2019-02-02T23:24:01.345Z,100728.92
2019-02-02T23:26:31.461Z,100731.92
2019-02-02T23:29:00.995Z,100741.16
2019-02-02T23:31:30.898Z,100747.24
2019-02-02T23:34:00.537Z,100750.95
2019-02-02T23:36:30.090Z,100744.48
2019-02-02T23:38:59.494Z,100748.13
2019-02-02T23:41:30.908Z,100753.73
2019-02-02T23:44:01.893Z,100756.73
2019-02-02T23:46:31.418Z,100774.82
2019-02-02T23:49:01.235Z,100773.30
2019-02-02T23:51:30.667Z,100786.13
2019-02-02T23:54:00.074Z,100789.64
2019-02-02T23:56:30.153Z,100801.38
2019-02-02T23:58:59.750Z,100806.14
